sensor_id;sensor_type;location;lat;lon;timestamp;P1;durP1;ratioP1;P2;durP2;ratioP2
79348;SDS011;68817;48.110;11.660;2023-12-20T00:02:07;3.28;;;1.40;;
79348;SDS011;68817;48.110;11.660;2023-12-20T00:04:32;2.55;;;1.60;;
79348;SDS011;68817;48.110;11.660;2023-12-20T00:06:57;2.83;;;1.63;;
79348;SDS011;68817;48.110;11.660;2023-12-20T00:09:23;2.88;;;1.70;;
79348;SDS011;68817;48.110;11.660;2023-12-20T00:11:48;3.17;;;1.60;;
79348;SDS011;68817;48.110;11.660;2023-12-20T00:14:14;3.05;;;1.70;;
79348;SDS011;68817;48.110;11.660;2023-12-20T00:16:39;3.13;;;1.85;;
79348;SDS011;68817;48.110;11.660;2023-12-20T00:19:04;2.80;;;1.73;;
79348;SDS011;68817;48.110;11.660;2023-12-20T00:21:30;2.33;;;1.70;;
79348;SDS011;68817;48.110;11.660;2023-12-20T00:23:55;2.90;;;1.63;;
79348;SDS011;68817;48.110;11.660;2023-12-20T00:26:20;2.50;;;1.23;;
79348;SDS011;68817;48.110;11.660;2023-12-20T00:28:46;3.28;;;1.48;;
79348;SDS011;68817;48.110;11.660;2023-12-20T00:31:11;2.42;;;1.50;;
79348;SDS011;68817;48.110;11.660;2023-12-20T00:33:37;3.33;;;1.52;;
79348;SDS011;68817;48.110;11.660;2023-12-20T00:36:02;7.38;;;1.70;;
79348;SDS011;68817;48.110;11.660;2023-12-20T00:38:28;2.30;;;1.63;;
79348;SDS011;68817;48.110;11.660;2023-12-20T00:40:53;3.05;;;1.88;;
79348;SDS011;68817;48.110;11.660;2023-12-20T00:43:18;2.65;;;1.50;;
79348;SDS011;68817;48.110;11.660;2023-12-20T00:45:44;2.75;;;1.67;;
79348;SDS011;68817;48.110;11.660;2023-12-20T00:48:09;1.90;;;1.48;;
79348;SDS011;68817;48.110;11.660;2023-12-20T00:50:35;2.03;;;1.38;;
79348;SDS011;68817;48.110;11.660;2023-12-20T00:53:00;2.97;;;1.23;;
79348;SDS011;68817;48.110;11.660;2023-12-20T00:55:26;3.00;;;1.42;;
79348;SDS011;68817;48.110;11.660;2023-12-20T00:57:51;2.15;;;1.20;;
79348;SDS011;68817;48.110;11.660;2023-12-20T01:00:18;3.17;;;1.20;;
79348;SDS011;68817;48.110;11.660;2023-12-20T01:02:43;2.85;;;1.00;;
79348;SDS011;68817;48.110;11.660;2023-12-20T01:05:09;1.48;;;1.05;;
79348;SDS011;68817;48.110;11.660;2023-12-20T01:07:34;1.88;;;0.98;;
79348;SDS011;68817;48.110;11.660;2023-12-20T01:10:00;2.38;;;1.10;;
79348;SDS011;68817;48.110;11.660;2023-12-20T01:12:25;1.73;;;1.10;;
79348;SDS011;68817;48.110;11.660;2023-12-20T01:14:51;3.35;;;1.10;;
79348;SDS011;68817;48.110;11.660;2023-12-20T01:17:16;1.80;;;1.00;;
79348;SDS011;68817;48.110;11.660;2023-12-20T01:19:42;1.60;;;1.17;;
79348;SDS011;68817;48.110;11.660;2023-12-20T01:22:07;2.55;;;1.35;;
79348;SDS011;68817;48.110;11.660;2023-12-20T01:24:32;1.55;;;1.15;;
79348;SDS011;68817;48.110;11.660;2023-12-20T01:26:58;1.55;;;1.10;;
79348;SDS011;68817;48.110;11.660;2023-12-20T01:29:23;1.85;;;0.90;;
79348;SDS011;68817;48.110;11.660;2023-12-20T01:31:48;2.10;;;1.17;;
79348;SDS011;68817;48.110;11.660;2023-12-20T01:34:14;1.95;;;1.08;;
79348;SDS011;68817;48.110;11.660;2023-12-20T01:36:39;1.50;;;0.95;;
79348;SDS011;68817;48.110;11.660;2023-12-20T01:39:05;2.33;;;1.38;;
79348;SDS011;68817;48.110;11.660;2023-12-20T01:41:30;1.80;;;1.00;;
79348;SDS011;68817;48.110;11.660;2023-12-20T01:43:55;1.50;;;1.00;;
79348;SDS011;68817;48.110;11.660;2023-12-20T01:46:21;1.85;;;1.13;;
79348;SDS011;68817;48.110;11.660;2023-12-20T01:48:47;2.00;;;1.13;;
79348;SDS011;68817;48.110;11.660;2023-12-20T01:51:13;1.17;;;0.82;;
79348;SDS011;68817;48.110;11.660;2023-12-20T01:53:38;1.20;;;0.90;;
79348;SDS011;68817;48.110;11.660;2023-12-20T01:56:05;1.83;;;0.77;;
79348;SDS011;68817;48.110;11.660;2023-12-20T01:58:30;1.63;;;0.98;;
79348;SDS011;68817;48.110;11.660;2023-12-20T02:00:56;1.30;;;0.90;;
79348;SDS011;68817;48.110;11.660;2023-12-20T02:03:22;1.90;;;0.90;;
79348;SDS011;68817;48.110;11.660;2023-12-20T02:05:47;1.83;;;1.00;;
79348;SDS011;68817;48.110;11.660;2023-12-20T02:08:13;1.52;;;1.10;;
79348;SDS011;68817;48.110;11.660;2023-12-20T02:10:38;1.42;;;0.73;;
79348;SDS011;68817;48.110;11.660;2023-12-20T02:13:05;1.42;;;1.00;;
79348;SDS011;68817;48.110;11.660;2023-12-20T02:15:31;2.22;;;1.30;;
79348;SDS011;68817;48.110;11.660;2023-12-20T02:17:56;1.67;;;1.00;;
79348;SDS011;68817;48.110;11.660;2023-12-20T02:20:22;1.88;;;0.73;;
79348;SDS011;68817;48.110;11.660;2023-12-20T02:22:47;1.70;;;0.85;;
79348;SDS011;68817;48.110;11.660;2023-12-20T02:25:12;1.20;;;0.90;;
79348;SDS011;68817;48.110;11.660;2023-12-20T02:27:38;1.27;;;0.75;;
79348;SDS011;68817;48.110;11.660;2023-12-20T02:30:05;2.10;;;0.88;;
79348;SDS011;68817;48.110;11.660;2023-12-20T02:32:30;3.97;;;0.90;;
79348;SDS011;68817;48.110;11.660;2023-12-20T02:34:56;1.27;;;0.68;;
79348;SDS011;68817;48.110;11.660;2023-12-20T02:37:21;1.13;;;0.70;;
79348;SDS011;68817;48.110;11.660;2023-12-20T02:39:47;1.75;;;0.70;;
79348;SDS011;68817;48.110;11.660;2023-12-20T02:42:12;1.17;;;0.50;;
79348;SDS011;68817;48.110;11.660;2023-12-20T02:44:38;1.08;;;0.70;;
79348;SDS011;68817;48.110;11.660;2023-12-20T02:47:03;1.45;;;0.75;;
79348;SDS011;68817;48.110;11.660;2023-12-20T02:49:29;1.55;;;0.80;;
79348;SDS011;68817;48.110;11.660;2023-12-20T02:51:54;0.70;;;0.50;;
79348;SDS011;68817;48.110;11.660;2023-12-20T02:54:20;0.60;;;0.47;;
79348;SDS011;68817;48.110;11.660;2023-12-20T02:56:45;1.33;;;0.73;;
79348;SDS011;68817;48.110;11.660;2023-12-20T02:59:10;1.27;;;0.73;;
79348;SDS011;68817;48.110;11.660;2023-12-20T03:01:41;1.00;;;0.70;;
79348;SDS011;68817;48.110;11.660;2023-12-20T03:04:07;1.27;;;0.65;;
79348;SDS011;68817;48.110;11.660;2023-12-20T03:06:32;2.33;;;1.02;;
79348;SDS011;68817;48.110;11.660;2023-12-20T03:08:57;0.95;;;0.65;;
79348;SDS011;68817;48.110;11.660;2023-12-20T03:11:26;1.05;;;0.70;;
79348;SDS011;68817;48.110;11.660;2023-12-20T03:13:51;1.17;;;0.60;;
79348;SDS011;68817;48.110;11.660;2023-12-20T03:16:17;0.95;;;0.57;;
79348;SDS011;68817;48.110;11.660;2023-12-20T03:18:42;1.73;;;0.90;;
79348;SDS011;68817;48.110;11.660;2023-12-20T03:21:08;0.73;;;0.50;;
79348;SDS011;68817;48.110;11.660;2023-12-20T03:23:34;0.95;;;0.77;;
79348;SDS011;68817;48.110;11.660;2023-12-20T03:25:59;0.90;;;0.50;;
79348;SDS011;68817;48.110;11.660;2023-12-20T03:28:25;1.52;;;0.88;;
79348;SDS011;68817;48.110;11.660;2023-12-20T03:30:51;1.52;;;0.85;;
79348;SDS011;68817;48.110;11.660;2023-12-20T03:33:17;1.75;;;0.90;;
79348;SDS011;68817;48.110;11.660;2023-12-20T03:35:42;1.33;;;0.70;;
79348;SDS011;68817;48.110;11.660;2023-12-20T03:38:08;1.45;;;0.88;;
79348;SDS011;68817;48.110;11.660;2023-12-20T03:40:33;1.90;;;0.85;;
79348;SDS011;68817;48.110;11.660;2023-12-20T03:42:58;1.20;;;0.90;;
79348;SDS011;68817;48.110;11.660;2023-12-20T03:45:24;1.25;;;0.80;;
79348;SDS011;68817;48.110;11.660;2023-12-20T03:47:49;1.15;;;0.70;;
79348;SDS011;68817;48.110;11.660;2023-12-20T03:50:19;1.33;;;0.77;;
79348;SDS011;68817;48.110;11.660;2023-12-20T03:52:45;1.90;;;0.80;;
79348;SDS011;68817;48.110;11.660;2023-12-20T03:55:11;1.40;;;0.80;;
79348;SDS011;68817;48.110;11.660;2023-12-20T03:57:36;0.50;;;0.43;;
79348;SDS011;68817;48.110;11.660;2023-12-20T04:00:01;2.40;;;0.80;;
79348;SDS011;68817;48.110;11.660;2023-12-20T04:02:37;1.90;;;0.45;;
79348;SDS011;68817;48.110;11.660;2023-12-20T04:05:03;1.05;;;0.40;;
79348;SDS011;68817;48.110;11.660;2023-12-20T04:07:30;0.82;;;0.50;;
79348;SDS011;68817;48.110;11.660;2023-12-20T04:09:55;0.90;;;0.60;;
79348;SDS011;68817;48.110;11.660;2023-12-20T04:12:20;1.10;;;0.50;;
79348;SDS011;68817;48.110;11.660;2023-12-20T04:14:46;1.40;;;0.52;;
79348;SDS011;68817;48.110;11.660;2023-12-20T04:17:11;1.45;;;0.52;;
79348;SDS011;68817;48.110;11.660;2023-12-20T04:19:36;0.93;;;0.50;;
79348;SDS011;68817;48.110;11.660;2023-12-20T04:22:02;0.55;;;0.30;;
79348;SDS011;68817;48.110;11.660;2023-12-20T04:24:27;0.93;;;0.55;;
79348;SDS011;68817;48.110;11.660;2023-12-20T04:26:53;0.95;;;0.60;;
79348;SDS011;68817;48.110;11.660;2023-12-20T04:29:18;0.68;;;0.40;;
79348;SDS011;68817;48.110;11.660;2023-12-20T04:31:44;1.58;;;0.95;;
79348;SDS011;68817;48.110;11.660;2023-12-20T04:34:09;0.93;;;0.50;;
79348;SDS011;68817;48.110;11.660;2023-12-20T04:36:34;0.52;;;0.35;;
79348;SDS011;68817;48.110;11.660;2023-12-20T04:39:00;0.85;;;0.60;;
79348;SDS011;68817;48.110;11.660;2023-12-20T04:41:25;0.65;;;0.50;;
79348;SDS011;68817;48.110;11.660;2023-12-20T04:43:52;1.58;;;0.60;;
79348;SDS011;68817;48.110;11.660;2023-12-20T04:46:18;1.15;;;0.60;;
79348;SDS011;68817;48.110;11.660;2023-12-20T04:48:43;1.05;;;0.82;;
79348;SDS011;68817;48.110;11.660;2023-12-20T04:51:08;0.80;;;0.63;;
79348;SDS011;68817;48.110;11.660;2023-12-20T04:53:34;1.02;;;0.60;;
79348;SDS011;68817;48.110;11.660;2023-12-20T04:55:59;1.00;;;0.60;;
79348;SDS011;68817;48.110;11.660;2023-12-20T04:58:25;1.05;;;0.85;;
79348;SDS011;68817;48.110;11.660;2023-12-20T05:00:50;1.10;;;0.70;;
79348;SDS011;68817;48.110;11.660;2023-12-20T05:03:15;1.20;;;0.63;;
79348;SDS011;68817;48.110;11.660;2023-12-20T05:05:41;1.58;;;0.98;;
79348;SDS011;68817;48.110;11.660;2023-12-20T05:08:06;1.80;;;0.82;;
79348;SDS011;68817;48.110;11.660;2023-12-20T05:10:32;1.40;;;0.98;;
79348;SDS011;68817;48.110;11.660;2023-12-20T05:12:57;2.10;;;1.05;;
79348;SDS011;68817;48.110;11.660;2023-12-20T05:15:22;2.03;;;0.93;;
79348;SDS011;68817;48.110;11.660;2023-12-20T05:17:48;2.47;;;1.60;;
79348;SDS011;68817;48.110;11.660;2023-12-20T05:20:13;1.48;;;0.98;;
79348;SDS011;68817;48.110;11.660;2023-12-20T05:22:41;1.50;;;1.00;;
79348;SDS011;68817;48.110;11.660;2023-12-20T05:25:06;1.50;;;1.02;;
79348;SDS011;68817;48.110;11.660;2023-12-20T05:27:32;1.63;;;1.00;;
79348;SDS011;68817;48.110;11.660;2023-12-20T05:29:57;1.30;;;1.00;;
79348;SDS011;68817;48.110;11.660;2023-12-20T05:32:23;2.15;;;1.08;;
79348;SDS011;68817;48.110;11.660;2023-12-20T05:34:48;1.23;;;0.85;;
79348;SDS011;68817;48.110;11.660;2023-12-20T05:37:14;1.35;;;1.05;;
79348;SDS011;68817;48.110;11.660;2023-12-20T05:39:39;2.13;;;1.13;;
79348;SDS011;68817;48.110;11.660;2023-12-20T05:42:05;1.50;;;0.90;;
79348;SDS011;68817;48.110;11.660;2023-12-20T05:44:30;2.03;;;1.13;;
79348;SDS011;68817;48.110;11.660;2023-12-20T05:46:55;2.13;;;1.00;;
79348;SDS011;68817;48.110;11.660;2023-12-20T05:49:21;1.55;;;0.98;;
79348;SDS011;68817;48.110;11.660;2023-12-20T05:51:47;2.35;;;1.23;;
79348;SDS011;68817;48.110;11.660;2023-12-20T05:54:12;2.08;;;1.02;;
79348;SDS011;68817;48.110;11.660;2023-12-20T05:56:38;1.33;;;0.80;;
79348;SDS011;68817;48.110;11.660;2023-12-20T05:59:03;1.30;;;0.95;;
79348;SDS011;68817;48.110;11.660;2023-12-20T06:01:29;2.08;;;1.10;;
79348;SDS011;68817;48.110;11.660;2023-12-20T06:03:54;1.45;;;1.05;;
79348;SDS011;68817;48.110;11.660;2023-12-20T06:06:19;2.30;;;1.10;;
79348;SDS011;68817;48.110;11.660;2023-12-20T06:08:45;2.35;;;1.10;;
79348;SDS011;68817;48.110;11.660;2023-12-20T06:11:10;1.75;;;0.95;;
79348;SDS011;68817;48.110;11.660;2023-12-20T06:13:35;1.77;;;0.98;;
79348;SDS011;68817;48.110;11.660;2023-12-20T06:16:01;1.45;;;1.05;;
79348;SDS011;68817;48.110;11.660;2023-12-20T06:18:26;1.80;;;1.00;;
79348;SDS011;68817;48.110;11.660;2023-12-20T06:20:52;1.50;;;1.00;;
79348;SDS011;68817;48.110;11.660;2023-12-20T06:23:17;2.45;;;1.50;;
79348;SDS011;68817;48.110;11.660;2023-12-20T06:25:42;1.65;;;0.90;;
79348;SDS011;68817;48.110;11.660;2023-12-20T06:28:08;1.38;;;1.00;;
79348;SDS011;68817;48.110;11.660;2023-12-20T06:30:35;2.13;;;1.50;;
79348;SDS011;68817;48.110;11.660;2023-12-20T06:33:01;2.88;;;1.00;;
79348;SDS011;68817;48.110;11.660;2023-12-20T06:35:26;1.35;;;1.00;;
79348;SDS011;68817;48.110;11.660;2023-12-20T06:37:51;1.70;;;1.15;;
79348;SDS011;68817;48.110;11.660;2023-12-20T06:40:17;1.83;;;0.93;;
79348;SDS011;68817;48.110;11.660;2023-12-20T06:42:43;2.13;;;1.05;;
79348;SDS011;68817;48.110;11.660;2023-12-20T06:45:09;1.58;;;0.90;;
79348;SDS011;68817;48.110;11.660;2023-12-20T06:47:34;2.13;;;0.90;;
79348;SDS011;68817;48.110;11.660;2023-12-20T06:50:00;1.85;;;1.08;;
79348;SDS011;68817;48.110;11.660;2023-12-20T06:52:26;1.15;;;0.77;;
79348;SDS011;68817;48.110;11.660;2023-12-20T06:54:51;1.42;;;0.80;;
79348;SDS011;68817;48.110;11.660;2023-12-20T06:57:17;2.30;;;0.95;;
79348;SDS011;68817;48.110;11.660;2023-12-20T06:59:42;1.52;;;0.82;;
79348;SDS011;68817;48.110;11.660;2023-12-20T07:02:08;1.40;;;0.77;;
79348;SDS011;68817;48.110;11.660;2023-12-20T07:04:33;1.08;;;0.70;;
79348;SDS011;68817;48.110;11.660;2023-12-20T07:06:59;1.30;;;0.63;;
79348;SDS011;68817;48.110;11.660;2023-12-20T07:09:28;1.08;;;0.68;;
79348;SDS011;68817;48.110;11.660;2023-12-20T07:11:53;1.20;;;0.90;;
79348;SDS011;68817;48.110;11.660;2023-12-20T07:14:19;0.98;;;0.70;;
79348;SDS011;68817;48.110;11.660;2023-12-20T07:16:44;0.73;;;0.52;;
79348;SDS011;68817;48.110;11.660;2023-12-20T07:19:09;0.85;;;0.70;;
79348;SDS011;68817;48.110;11.660;2023-12-20T07:21:35;1.13;;;0.88;;
79348;SDS011;68817;48.110;11.660;2023-12-20T07:24:00;0.95;;;0.63;;
79348;SDS011;68817;48.110;11.660;2023-12-20T07:26:26;1.15;;;0.70;;
79348;SDS011;68817;48.110;11.660;2023-12-20T07:28:51;0.90;;;0.60;;
79348;SDS011;68817;48.110;11.660;2023-12-20T07:31:16;0.70;;;0.50;;
79348;SDS011;68817;48.110;11.660;2023-12-20T07:33:42;2.05;;;0.80;;
79348;SDS011;68817;48.110;11.660;2023-12-20T07:36:07;1.27;;;0.63;;
79348;SDS011;68817;48.110;11.660;2023-12-20T07:38:33;1.00;;;0.50;;
79348;SDS011;68817;48.110;11.660;2023-12-20T07:40:59;1.17;;;0.70;;
79348;SDS011;68817;48.110;11.660;2023-12-20T07:43:25;0.98;;;0.60;;
79348;SDS011;68817;48.110;11.660;2023-12-20T07:45:50;1.05;;;0.40;;
79348;SDS011;68817;48.110;11.660;2023-12-20T07:48:15;1.63;;;0.75;;
79348;SDS011;68817;48.110;11.660;2023-12-20T07:50:41;1.02;;;0.70;;
79348;SDS011;68817;48.110;11.660;2023-12-20T07:53:07;1.33;;;0.55;;
79348;SDS011;68817;48.110;11.660;2023-12-20T07:55:32;2.00;;;0.60;;
79348;SDS011;68817;48.110;11.660;2023-12-20T07:57:58;1.38;;;0.85;;
79348;SDS011;68817;48.110;11.660;2023-12-20T08:00:24;1.40;;;0.75;;
79348;SDS011;68817;48.110;11.660;2023-12-20T08:02:49;1.05;;;0.60;;
79348;SDS011;68817;48.110;11.660;2023-12-20T08:05:15;1.67;;;0.80;;
79348;SDS011;68817;48.110;11.660;2023-12-20T08:07:40;1.30;;;0.60;;
79348;SDS011;68817;48.110;11.660;2023-12-20T08:10:06;0.80;;;0.50;;
79348;SDS011;68817;48.110;11.660;2023-12-20T08:12:32;1.00;;;0.68;;
79348;SDS011;68817;48.110;11.660;2023-12-20T08:14:58;0.90;;;0.57;;
79348;SDS011;68817;48.110;11.660;2023-12-20T08:17:24;1.45;;;0.63;;
79348;SDS011;68817;48.110;11.660;2023-12-20T08:19:49;2.20;;;0.60;;
79348;SDS011;68817;48.110;11.660;2023-12-20T08:22:14;1.10;;;0.70;;
79348;SDS011;68817;48.110;11.660;2023-12-20T08:24:40;1.00;;;0.90;;
79348;SDS011;68817;48.110;11.660;2023-12-20T08:27:05;0.80;;;0.57;;
79348;SDS011;68817;48.110;11.660;2023-12-20T08:29:31;1.75;;;0.60;;
79348;SDS011;68817;48.110;11.660;2023-12-20T08:31:56;1.17;;;0.65;;
79348;SDS011;68817;48.110;11.660;2023-12-20T08:34:22;0.70;;;0.43;;
79348;SDS011;68817;48.110;11.660;2023-12-20T08:36:49;0.90;;;0.60;;
79348;SDS011;68817;48.110;11.660;2023-12-20T08:39:16;0.90;;;0.70;;
79348;SDS011;68817;48.110;11.660;2023-12-20T08:41:42;1.63;;;0.57;;
79348;SDS011;68817;48.110;11.660;2023-12-20T08:44:07;1.13;;;0.63;;
79348;SDS011;68817;48.110;11.660;2023-12-20T08:46:33;0.70;;;0.50;;
79348;SDS011;68817;48.110;11.660;2023-12-20T08:48:58;1.13;;;0.60;;
79348;SDS011;68817;48.110;11.660;2023-12-20T08:51:25;0.90;;;0.70;;
79348;SDS011;68817;48.110;11.660;2023-12-20T08:53:51;0.90;;;0.70;;
79348;SDS011;68817;48.110;11.660;2023-12-20T08:56:16;1.13;;;0.70;;
79348;SDS011;68817;48.110;11.660;2023-12-20T08:58:43;1.08;;;0.70;;
79348;SDS011;68817;48.110;11.660;2023-12-20T09:01:08;1.15;;;0.65;;
79348;SDS011;68817;48.110;11.660;2023-12-20T09:03:34;1.25;;;0.60;;
79348;SDS011;68817;48.110;11.660;2023-12-20T09:06:00;0.90;;;0.60;;
79348;SDS011;68817;48.110;11.660;2023-12-20T09:08:25;0.73;;;0.55;;
79348;SDS011;68817;48.110;11.660;2023-12-20T09:10:52;0.93;;;0.52;;
79348;SDS011;68817;48.110;11.660;2023-12-20T09:13:17;0.88;;;0.50;;
79348;SDS011;68817;48.110;11.660;2023-12-20T09:15:42;0.73;;;0.43;;
79348;SDS011;68817;48.110;11.660;2023-12-20T09:18:08;0.95;;;0.50;;
79348;SDS011;68817;48.110;11.660;2023-12-20T09:20:33;1.50;;;0.60;;
79348;SDS011;68817;48.110;11.660;2023-12-20T09:22:59;0.85;;;0.45;;
79348;SDS011;68817;48.110;11.660;2023-12-20T09:25:24;0.70;;;0.50;;
79348;SDS011;68817;48.110;11.660;2023-12-20T09:27:51;0.40;;;0.32;;
79348;SDS011;68817;48.110;11.660;2023-12-20T09:30:17;0.65;;;0.43;;
79348;SDS011;68817;48.110;11.660;2023-12-20T09:32:43;1.10;;;0.30;;
79348;SDS011;68817;48.110;11.660;2023-12-20T09:35:08;0.68;;;0.47;;
79348;SDS011;68817;48.110;11.660;2023-12-20T09:37:34;0.63;;;0.45;;
79348;SDS011;68817;48.110;11.660;2023-12-20T09:40:00;1.08;;;0.50;;
79348;SDS011;68817;48.110;11.660;2023-12-20T09:45:14;0.63;;;0.40;;
79348;SDS011;68817;48.110;11.660;2023-12-20T09:47:42;0.77;;;0.55;;
79348;SDS011;68817;48.110;11.660;2023-12-20T09:50:08;0.63;;;0.50;;
79348;SDS011;68817;48.110;11.660;2023-12-20T09:52:34;0.63;;;0.45;;
79348;SDS011;68817;48.110;11.660;2023-12-20T09:55:01;0.68;;;0.50;;
79348;SDS011;68817;48.110;11.660;2023-12-20T09:57:30;0.60;;;0.40;;
79348;SDS011;68817;48.110;11.660;2023-12-20T09:59:56;1.10;;;0.70;;
79348;SDS011;68817;48.110;11.660;2023-12-20T10:02:22;0.88;;;0.50;;
79348;SDS011;68817;48.110;11.660;2023-12-20T10:04:49;1.30;;;0.70;;
79348;SDS011;68817;48.110;11.660;2023-12-20T10:07:15;1.25;;;0.70;;
79348;SDS011;68817;48.110;11.660;2023-12-20T10:09:40;0.80;;;0.50;;
79348;SDS011;68817;48.110;11.660;2023-12-20T10:12:07;0.82;;;0.50;;
79348;SDS011;68817;48.110;11.660;2023-12-20T10:14:32;3.20;;;0.70;;
79348;SDS011;68817;48.110;11.660;2023-12-20T10:17:04;0.88;;;0.60;;
79348;SDS011;68817;48.110;11.660;2023-12-20T10:19:30;1.00;;;0.70;;
79348;SDS011;68817;48.110;11.660;2023-12-20T10:21:56;1.02;;;0.70;;
79348;SDS011;68817;48.110;11.660;2023-12-20T10:24:24;1.52;;;0.85;;
79348;SDS011;68817;48.110;11.660;2023-12-20T10:26:55;1.00;;;0.80;;
79348;SDS011;68817;48.110;11.660;2023-12-20T10:29:26;0.80;;;0.60;;
79348;SDS011;68817;48.110;11.660;2023-12-20T10:31:51;1.02;;;0.60;;
79348;SDS011;68817;48.110;11.660;2023-12-20T10:34:22;1.42;;;0.82;;
79348;SDS011;68817;48.110;11.660;2023-12-20T10:36:47;2.90;;;0.90;;
79348;SDS011;68817;48.110;11.660;2023-12-20T10:39:13;0.80;;;0.60;;
79348;SDS011;68817;48.110;11.660;2023-12-20T10:41:39;1.00;;;0.70;;
79348;SDS011;68817;48.110;11.660;2023-12-20T10:44:06;0.98;;;0.80;;
79348;SDS011;68817;48.110;11.660;2023-12-20T10:46:32;1.40;;;0.70;;
79348;SDS011;68817;48.110;11.660;2023-12-20T10:48:58;2.25;;;0.80;;
79348;SDS011;68817;48.110;11.660;2023-12-20T10:51:24;1.75;;;0.65;;
79348;SDS011;68817;48.110;11.660;2023-12-20T10:53:52;0.80;;;0.40;;
79348;SDS011;68817;48.110;11.660;2023-12-20T10:56:18;1.63;;;0.70;;
79348;SDS011;68817;48.110;11.660;2023-12-20T10:58:45;1.88;;;0.90;;
79348;SDS011;68817;48.110;11.660;2023-12-20T11:01:14;1.02;;;0.65;;
79348;SDS011;68817;48.110;11.660;2023-12-20T11:03:43;1.30;;;0.70;;
79348;SDS011;68817;48.110;11.660;2023-12-20T11:11:41;1.60;;;0.68;;
79348;SDS011;68817;48.110;11.660;2023-12-20T11:14:17;1.55;;;0.88;;
79348;SDS011;68817;48.110;11.660;2023-12-20T11:16:45;0.82;;;0.70;;
79348;SDS011;68817;48.110;11.660;2023-12-20T11:19:11;1.45;;;0.50;;
79348;SDS011;68817;48.110;11.660;2023-12-20T11:21:39;1.00;;;0.77;;
79348;SDS011;68817;48.110;11.660;2023-12-20T11:24:05;1.13;;;0.80;;
79348;SDS011;68817;48.110;11.660;2023-12-20T11:26:30;0.95;;;0.57;;
79348;SDS011;68817;48.110;11.660;2023-12-20T11:32:02;0.98;;;0.70;;
79348;SDS011;68817;48.110;11.660;2023-12-20T11:34:31;1.20;;;0.80;;
79348;SDS011;68817;48.110;11.660;2023-12-20T11:36:58;1.30;;;0.90;;
79348;SDS011;68817;48.110;11.660;2023-12-20T11:39:28;1.25;;;0.70;;
79348;SDS011;68817;48.110;11.660;2023-12-20T11:41:56;1.92;;;0.90;;
79348;SDS011;68817;48.110;11.660;2023-12-20T11:44:22;1.27;;;0.80;;
79348;SDS011;68817;48.110;11.660;2023-12-20T11:46:48;1.55;;;0.77;;
79348;SDS011;68817;48.110;11.660;2023-12-20T11:49:13;1.67;;;0.90;;
79348;SDS011;68817;48.110;11.660;2023-12-20T11:51:42;1.00;;;0.70;;
79348;SDS011;68817;48.110;11.660;2023-12-20T11:54:07;1.48;;;0.90;;
79348;SDS011;68817;48.110;11.660;2023-12-20T11:56:34;1.83;;;0.98;;
79348;SDS011;68817;48.110;11.660;2023-12-20T11:59:01;1.52;;;1.00;;
79348;SDS011;68817;48.110;11.660;2023-12-20T12:01:26;1.48;;;1.23;;
79348;SDS011;68817;48.110;11.660;2023-12-20T12:04:02;2.20;;;1.17;;
79348;SDS011;68817;48.110;11.660;2023-12-20T12:06:30;2.13;;;1.00;;
79348;SDS011;68817;48.110;11.660;2023-12-20T12:08:56;1.30;;;0.88;;
79348;SDS011;68817;48.110;11.660;2023-12-20T12:11:21;2.22;;;0.90;;
79348;SDS011;68817;48.110;11.660;2023-12-20T12:13:47;1.48;;;1.00;;
79348;SDS011;68817;48.110;11.660;2023-12-20T12:16:16;2.08;;;1.00;;
79348;SDS011;68817;48.110;11.660;2023-12-20T12:18:42;1.10;;;1.00;;
79348;SDS011;68817;48.110;11.660;2023-12-20T12:21:08;1.40;;;0.98;;
79348;SDS011;68817;48.110;11.660;2023-12-20T12:23:34;1.50;;;1.10;;
79348;SDS011;68817;48.110;11.660;2023-12-20T12:26:00;1.88;;;1.10;;
79348;SDS011;68817;48.110;11.660;2023-12-20T12:28:29;1.67;;;0.90;;
79348;SDS011;68817;48.110;11.660;2023-12-20T12:30:59;1.25;;;1.00;;
79348;SDS011;68817;48.110;11.660;2023-12-20T12:33:25;1.00;;;0.73;;
79348;SDS011;68817;48.110;11.660;2023-12-20T12:35:51;1.25;;;0.80;;
79348;SDS011;68817;48.110;11.660;2023-12-20T12:38:19;1.30;;;0.90;;
79348;SDS011;68817;48.110;11.660;2023-12-20T12:40:45;2.47;;;0.88;;
79348;SDS011;68817;48.110;11.660;2023-12-20T12:43:11;1.15;;;0.80;;
79348;SDS011;68817;48.110;11.660;2023-12-20T12:45:37;0.95;;;0.77;;
79348;SDS011;68817;48.110;11.660;2023-12-20T12:48:02;1.30;;;0.80;;
79348;SDS011;68817;48.110;11.660;2023-12-20T12:50:28;1.35;;;0.90;;
79348;SDS011;68817;48.110;11.660;2023-12-20T12:52:53;1.55;;;0.85;;
79348;SDS011;68817;48.110;11.660;2023-12-20T12:55:19;1.13;;;0.88;;
79348;SDS011;68817;48.110;11.660;2023-12-20T12:57:44;1.65;;;0.90;;
79348;SDS011;68817;48.110;11.660;2023-12-20T13:00:10;1.73;;;0.95;;
79348;SDS011;68817;48.110;11.660;2023-12-20T13:02:36;1.25;;;0.88;;
79348;SDS011;68817;48.110;11.660;2023-12-20T13:05:03;1.92;;;0.90;;
79348;SDS011;68817;48.110;11.660;2023-12-20T13:07:29;1.08;;;0.80;;
79348;SDS011;68817;48.110;11.660;2023-12-20T13:09:55;1.60;;;1.10;;
79348;SDS011;68817;48.110;11.660;2023-12-20T13:12:20;1.63;;;0.93;;
79348;SDS011;68817;48.110;11.660;2023-12-20T13:14:46;1.80;;;1.10;;
79348;SDS011;68817;48.110;11.660;2023-12-20T13:17:12;1.42;;;1.00;;
79348;SDS011;68817;48.110;11.660;2023-12-20T13:19:37;3.45;;;0.88;;
79348;SDS011;68817;48.110;11.660;2023-12-20T13:22:03;1.38;;;0.82;;
79348;SDS011;68817;48.110;11.660;2023-12-20T13:24:29;3.25;;;1.33;;
79348;SDS011;68817;48.110;11.660;2023-12-20T13:26:54;2.75;;;1.40;;
79348;SDS011;68817;48.110;11.660;2023-12-20T13:29:20;3.63;;;1.60;;
79348;SDS011;68817;48.110;11.660;2023-12-20T13:31:45;2.05;;;1.63;;
79348;SDS011;68817;48.110;11.660;2023-12-20T13:34:11;2.60;;;1.67;;
79348;SDS011;68817;48.110;11.660;2023-12-20T13:36:37;1.70;;;1.48;;
79348;SDS011;68817;48.110;11.660;2023-12-20T13:39:03;2.20;;;1.35;;
79348;SDS011;68817;48.110;11.660;2023-12-20T13:41:30;1.35;;;1.00;;
79348;SDS011;68817;48.110;11.660;2023-12-20T13:43:55;3.30;;;1.33;;
79348;SDS011;68817;48.110;11.660;2023-12-20T13:46:21;2.20;;;1.30;;
79348;SDS011;68817;48.110;11.660;2023-12-20T13:48:46;3.45;;;1.70;;
79348;SDS011;68817;48.110;11.660;2023-12-20T13:51:11;2.05;;;1.25;;
79348;SDS011;68817;48.110;11.660;2023-12-20T13:53:37;2.20;;;1.35;;
79348;SDS011;68817;48.110;11.660;2023-12-20T13:56:03;4.00;;;1.50;;
79348;SDS011;68817;48.110;11.660;2023-12-20T13:58:29;3.35;;;1.33;;
79348;SDS011;68817;48.110;11.660;2023-12-20T14:00:54;2.35;;;1.48;;
79348;SDS011;68817;48.110;11.660;2023-12-20T14:03:20;4.60;;;1.52;;
79348;SDS011;68817;48.110;11.660;2023-12-20T14:05:45;2.10;;;1.40;;
79348;SDS011;68817;48.110;11.660;2023-12-20T14:08:11;6.03;;;1.92;;
79348;SDS011;68817;48.110;11.660;2023-12-20T14:10:36;3.00;;;1.70;;
79348;SDS011;68817;48.110;11.660;2023-12-20T14:13:03;4.82;;;1.83;;
79348;SDS011;68817;48.110;11.660;2023-12-20T14:15:30;3.03;;;1.23;;
79348;SDS011;68817;48.110;11.660;2023-12-20T14:17:55;2.20;;;1.50;;
79348;SDS011;68817;48.110;11.660;2023-12-20T14:20:21;2.10;;;1.50;;
79348;SDS011;68817;48.110;11.660;2023-12-20T14:22:46;3.08;;;1.55;;
79348;SDS011;68817;48.110;11.660;2023-12-20T14:25:12;2.97;;;1.40;;
79348;SDS011;68817;48.110;11.660;2023-12-20T14:27:39;3.33;;;1.52;;
79348;SDS011;68817;48.110;11.660;2023-12-20T14:30:05;2.55;;;1.30;;
79348;SDS011;68817;48.110;11.660;2023-12-20T14:32:31;4.00;;;1.67;;
79348;SDS011;68817;48.110;11.660;2023-12-20T14:34:57;4.43;;;1.50;;
79348;SDS011;68817;48.110;11.660;2023-12-20T14:37:22;2.50;;;1.20;;